Map

Track Data

SID SEASON NUMBER BASIN SUBBASIN NAME ISO_TIME NATURE LAT LON WMO_WIND WMO_PRES WMO_AGENCY TRACK_TYPE DIST2LAND LANDFALL IFLAG USA_AGENCY USA_ATCF_ID USA_LAT USA_LON USA_RECORD USA_STATUS USA_WIND USA_PRES USA_SSHS USA_R34_NE USA_R34_SE USA_R34_SW USA_R34_NW USA_R50_NE USA_R50_SE USA_R50_SW USA_R50_NW USA_R64_NE USA_R64_SE USA_R64_SW USA_R64_NW USA_POCI USA_ROCI USA_RMW USA_EYE TOKYO_LAT TOKYO_LON TOKYO_GRADE TOKYO_WIND TOKYO_PRES TOKYO_R50_DIR TOKYO_R50_LONG TOKYO_R50_SHORT TOKYO_R30_DIR TOKYO_R30_LONG TOKYO_R30_SHORT TOKYO_LAND CMA_LAT CMA_LON CMA_CAT CMA_WIND CMA_PRES HKO_LAT HKO_LON HKO_CAT HKO_WIND HKO_PRES NEWDELHI_LAT NEWDELHI_LON NEWDELHI_GRADE NEWDELHI_WIND NEWDELHI_PRES NEWDELHI_CI NEWDELHI_DP NEWDELHI_POCI REUNION_LAT REUNION_LON REUNION_TYPE REUNION_WIND REUNION_PRES REUNION_TNUM REUNION_CI REUNION_RMW REUNION_R34_NE REUNION_R34_SE REUNION_R34_SW REUNION_R34_NW REUNION_R50_NE REUNION_R50_SE REUNION_R50_SW REUNION_R50_NW REUNION_R64_NE REUNION_R64_SE REUNION_R64_SW REUNION_R64_NW BOM_LAT BOM_LON BOM_TYPE BOM_WIND BOM_PRES BOM_TNUM BOM_CI BOM_RMW BOM_R34_NE BOM_R34_SE BOM_R34_SW BOM_R34_NW BOM_R50_NE BOM_R50_SE BOM_R50_SW BOM_R50_NW BOM_R64_NE BOM_R64_SE BOM_R64_SW BOM_R64_NW BOM_ROCI BOM_POCI BOM_EYE BOM_POS_METHOD BOM_PRES_METHOD NADI_LAT NADI_LON NADI_CAT NADI_WIND NADI_PRES WELLINGTON_LAT WELLINGTON_LON WELLINGTON_WIND WELLINGTON_PRES DS824_LAT DS824_LON DS824_STAGE DS824_WIND DS824_PRES TD9636_LAT TD9636_LON TD9636_STAGE TD9636_WIND TD9636_PRES TD9635_LAT TD9635_LON TD9635_WIND TD9635_PRES TD9635_ROCI NEUMANN_LAT NEUMANN_LON NEUMANN_CLASS NEUMANN_WIND NEUMANN_PRES MLC_LAT MLC_LON MLC_CLASS MLC_WIND MLC_PRES USA_GUST BOM_GUST BOM_GUST_PER REUNION_GUST REUNION_GUST_PER USA_SEAHGT USA_SEARAD_NE USA_SEARAD_SE USA_SEARAD_SW USA_SEARAD_NW STORM_SPEED STORM_DIR
1969261N14178 1969 80 WP MM NOT_NAMED 1969-09-18 00:00:00 TS 14.4000 178.000 main 2491 2491 __O___________ -1 14.4000 178.000 1 29 998 8 243
1969261N14178 1969 80 WP MM NOT_NAMED 1969-09-18 03:00:00 TS 14.2177 177.630 main 2539 2539 __P___________ -1 14.2177 177.630 1 29 999 7 246
1969261N14178 1969 80 WP MM NOT_NAMED 1969-09-18 06:00:00 TS 14.1000 177.300 main 2573 2573 __O___________ -1 14.1000 177.300 1 29 1000 6 257
1969261N14178 1969 80 WP MM NOT_NAMED 1969-09-18 09:00:00 TS 14.0849 177.035 main 2603 2603 __P___________ -1 14.0849 177.035 1 29 1001 5 270
1969261N14178 1969 80 WP MM NOT_NAMED 1969-09-18 12:00:00 TS 14.1000 176.800 main 2623 2623 __O___________ -1 14.1000 176.800 1 29 1002 5 268
1969261N14178 1969 80 WP MM NOT_NAMED 1969-09-18 15:00:00 TS 14.0650 176.550 main 2643 2643 __P___________ -1 14.0650 176.550 1 29 1002 5 258
1969261N14178 1969 80 WP MM NOT_NAMED 1969-09-18 18:00:00 TS 14.0000 176.300 main 2677 2677 __O___________ -1 14.0000 176.300 1 29 1003 5 251
1969261N14178 1969 80 WP MM NOT_NAMED 1969-09-18 21:00:00 TS 13.9000 176.050 main 2701 2711 __P___________ -1 13.9000 176.050 1 29 1004 5 248
1969261N14178 1969 80 WP MM NOT_NAMED 1969-09-19 00:00:00 TS 13.8000 175.800 main 2735 2735 __O___________ -1 13.8000 175.800 1 29 1005 5 248
1969261N14178 1969 80 WP MM NOT_NAMED 1969-09-19 03:00:00 TS 13.7050 175.557 main 2760 2760 __P___________ -1 13.7050 175.557 1 29 1005 5 258
1969261N14178 1969 80 WP MM NOT_NAMED 1969-09-19 06:00:00 TS 13.7000 175.300 main 2789 2789 __O___________ -1 13.7000 175.300 1 29 1006 6 286
1969261N14178 1969 80 WP MM NOT_NAMED 1969-09-19 09:00:00 TS 13.8626 174.985 main 2811 2811 __P___________ -1 13.8626 174.985 1 29 1006 7 304
1969261N14178 1969 80 WP MM NOT_NAMED 1969-09-19 12:00:00 TS 14.1000 174.700 main 2832 2832 __O___________ -1 14.1000 174.700 1 29 1006 6 315
1969261N14178 1969 80 WP MM NOT_NAMED 1969-09-19 15:00:00 TS 14.2924 174.535 main 2844 2840 __P___________ -1 14.2924 174.535 1 1006 5 324
1969261N14178 1969 80 WP MM NOT_NAMED 1969-09-19 18:00:00 TS 14.5000 174.400 main 2846 2842 __O___________ -1 14.5000 174.400 0 1006 6 328
1969261N14178 1969 80 WP MM NOT_NAMED 1969-09-19 21:00:00 TS 14.7800 174.215 main 2854 2850 __P___________ -1 14.7800 174.215 0 1006 6 322
1969261N14178 1969 80 WP MM NOT_NAMED 1969-09-20 00:00:00 TS 15.0000 174.000 main 2867 2867 __O___________ -1 15.0000 174.000 0 1006 5 301
1969261N14178 1969 80 WP MM NOT_NAMED 1969-09-20 03:00:00 TS 15.0450 173.750 main 2897 2897 __P___________ -1 15.0450 173.750 0 1006 5 270
1969261N14178 1969 80 WP MM NOT_NAMED 1969-09-20 06:00:00 TS 15.0000 173.500 main 2917 2917 __O___________ -1 15.0000 173.500 0 1006 4 260
1969261N14178 1969 80 WP MM NOT_NAMED 1969-09-20 09:00:00 TS 14.9650 173.293 main 2938 2938 __P___________ -1 14.9650 173.293 0 1007 4 255
1969261N14178 1969 80 WP MM NOT_NAMED 1969-09-20 12:00:00 TS 14.9000 173.100 main 2941 2921 __O___________ -1 14.9000 173.100 0 1008 4 248
1969261N14178 1969 80 WP MM NOT_NAMED 1969-09-20 15:00:00 TS 14.8150 172.900 main 2921 2902 __P___________ -1 14.8150 172.900 0 1008 4 243
1969261N14178 1969 80 WP MM NOT_NAMED 1969-09-20 18:00:00 TS 14.7000 172.700 main 2902 2882 __O___________ -1 14.7000 172.700 0 1008 5 237
1969261N14178 1969 80 WP MM NOT_NAMED 1969-09-20 21:00:00 TS 14.5725 172.508 main 2882 2852 __P___________ -1 14.5725 172.508 0 1008 5 232
1969261N14178 1969 80 WP MM NOT_NAMED 1969-09-21 00:00:00 TS 14.4000 172.300 main 2852 2812 __O___________ -1 14.4000 172.300 0 1008 6 224
1969261N14178 1969 80 WP MM NOT_NAMED 1969-09-21 03:00:00 TS 14.1349 172.072 main 2812 2778 __P___________ -1 14.1349 172.072 0 1008 7 224
1969261N14178 1969 80 WP MM NOT_NAMED 1969-09-21 06:00:00 TS 13.9000 171.800 main 2778 2753 __O___________ -1 13.9000 171.800 0 1008 7 238
1969261N14178 1969 80 WP MM NOT_NAMED 1969-09-21 09:00:00 TS 13.7749 171.480 main 2753 2735 __P___________ -1 13.7749 171.480 0 1008 7 262
1969261N14178 1969 80 WP MM NOT_NAMED 1969-09-21 12:00:00 TS 13.8000 171.100 main 2735 2730 __O___________ -1 13.8000 171.100 0 1008 8 286
1969261N14178 1969 80 WP MM NOT_NAMED 1969-09-21 15:00:00 TS 14.0050 170.673 main 2737 2732 __P___________ -1 14.0050 170.673 0 1008 10 300
1969261N14178 1969 80 WP MM NOT_NAMED 1969-09-21 18:00:00 TS 14.3000 170.200 main 2746 2742 __O___________ -1 14.3000 170.200 0 1008 11 301
1969261N14178 1969 80 WP MM NOT_NAMED 1969-09-21 21:00:00 TS 14.5652 169.705 main 2757 2749 __P___________ -1 14.5652 169.705 0 1008 11 297
1969261N14178 1969 80 WP MM NOT_NAMED 1969-09-22 00:00:00 TS 14.8000 169.200 main 2759 __O___________ -1 14.8000 169.200 0 1008 11 296

Digital Typhoon Data and Search

About IBTrACS Database

This database is a web-friendly format of International Best Track Archive for Climate Stewardship (IBTrACS), a global best track data archive curated by NOAA dating back to 1842.

Updated: 2021-10-21